Time;durP1;ratioP1;P1;durP2;ratioP2;P2;SDS_P1;SDS_P2;PMS_P1;PMS_P2;Temp;Humidity;BMP_temperature;BMP_pressure;BME280_temperature;BME280_humidity;BME280_pressure;Samples;Min_cycle;Max_cycle;Signal;HPM_P1;HPM_P2
2024/02/24 00:01:53;;;;;;;30.90;22.20;;;;;;;7.88;100.00;98812.24;102908;1259;138591;-77
2024/02/24 00:04:21;;;;;;;33.50;24.80;;;;;;;7.86;100.00;98807.48;102947;1264;99648;-76
2024/02/24 00:06:48;;;;;;;31.40;24.00;;;;;;;7.83;100.00;98797.39;103085;1259;107659;-77
2024/02/24 00:09:16;;;;;;;33.60;24.40;;;;;;;7.81;100.00;98795.08;102924;1259;97820;-78
2024/02/24 00:11:44;;;;;;;35.70;25.50;;;;;;;7.78;100.00;98791.59;102956;1259;110723;-77
2024/02/24 00:14:11;;;;;;;36.10;26.50;;;;;;;7.77;100.00;98786.98;103035;1259;138583;-78
2024/02/24 00:16:39;;;;;;;37.10;27.10;;;;;;;7.74;100.00;98787.08;103079;1259;97832;-76
2024/02/24 00:19:06;;;;;;;40.10;28.00;;;;;;;7.72;100.00;98788.40;102984;1262;141587;-76
2024/02/24 00:21:34;;;;;;;40.80;27.50;;;;;;;7.70;100.00;98783.28;102877;1259;97835;-76
2024/02/24 00:24:01;;;;;;;38.30;27.80;;;;;;;7.68;100.00;98781.98;102888;1259;111450;-77
2024/02/24 00:26:28;;;;;;;37.60;27.90;;;;;;;7.67;100.00;98778.75;102788;1263;138640;-77
2024/02/24 00:28:56;;;;;;;37.50;27.70;;;;;;;7.65;100.00;98783.14;102897;1259;97820;-76
2024/02/24 00:31:23;;;;;;;43.90;30.00;;;;;;;7.64;100.00;98789.10;102860;1261;140447;-77
2024/02/24 00:33:50;;;;;;;41.70;29.10;;;;;;;7.62;100.00;98786.05;103229;1264;97798;-76
2024/02/24 00:36:18;;;;;;;38.50;28.10;;;;;;;7.62;100.00;98784.18;103408;1258;110921;-77
2024/02/24 00:38:46;;;;;;;38.00;27.70;;;;;;;7.59;100.00;98771.13;102883;1262;139742;-76
2024/02/24 00:41:13;;;;;;;42.80;29.40;;;;;;;7.58;100.00;98765.33;103151;1259;98387;-76
2024/02/24 00:43:41;;;;;;;39.70;29.10;;;;;;;7.56;100.00;98763.67;102871;1259;138373;-76
2024/02/24 00:46:09;;;;;;;41.80;29.40;;;;;;;7.53;100.00;98766.00;103406;1259;97831;-76
2024/02/24 00:48:36;;;;;;;43.80;31.00;;;;;;;7.51;100.00;98762.48;102833;1259;112052;-75
2024/02/24 00:51:04;;;;;;;43.60;30.50;;;;;;;7.50;100.00;98763.23;102742;1264;137332;-76
2024/02/24 00:53:31;;;;;;;42.50;30.50;;;;;;;7.47;100.00;98755.75;102945;1259;99055;-76
2024/02/24 00:55:59;;;;;;;42.20;30.60;;;;;;;7.45;100.00;98748.94;102827;1259;138682;-76
2024/02/24 00:58:26;;;;;;;43.10;30.20;;;;;;;7.43;100.00;98750.38;103010;1259;97830;-76
2024/02/24 01:00:53;;;;;;;41.20;29.80;;;;;;;7.43;100.00;98755.92;102958;1259;139377;-74
2024/02/24 01:03:21;;;;;;;40.60;31.20;;;;;;;7.43;100.00;98754.56;103376;1257;107116;-76
2024/02/24 01:05:49;;;;;;;43.80;31.10;;;;;;;7.42;100.00;98752.20;102851;1262;97810;-75
2024/02/24 01:08:17;;;;;;;40.10;31.00;;;;;;;7.41;100.00;98747.73;102816;1259;139050;-76
2024/02/24 01:10:44;;;;;;;40.20;30.50;;;;;;;7.41;100.00;98743.93;103369;1258;97827;-76
2024/02/24 01:13:12;;;;;;;41.20;31.60;;;;;;;7.38;100.00;98732.30;102832;1257;139073;-77
2024/02/24 01:15:40;;;;;;;36.60;29.80;;;;;;;7.40;100.00;98738.80;103017;1259;107282;-75
2024/02/24 01:18:08;;;;;;;38.40;28.80;;;;;;;7.39;100.00;98739.51;102986;1259;98338;-77
2024/02/24 01:20:35;;;;;;;37.80;30.30;;;;;;;7.38;100.00;98729.88;103068;1258;139587;-76
2024/02/24 01:23:03;;;;;;;37.20;28.90;;;;;;;7.37;100.00;98732.52;103754;1259;96181;-77
2024/02/24 01:25:31;;;;;;;38.70;28.60;;;;;;;7.36;100.00;98729.27;103212;1258;138798;-77
2024/02/24 01:27:58;;;;;;;37.80;29.20;;;;;;;7.36;100.00;98722.34;102892;1260;108258;-77
2024/02/24 01:30:26;;;;;;;38.00;29.40;;;;;;;7.36;100.00;98726.31;102943;1263;98024;-77
2024/02/24 01:32:53;;;;;;;34.50;27.90;;;;;;;7.35;100.00;98727.71;103127;1258;138410;-77
2024/02/24 01:35:21;;;;;;;36.50;28.90;;;;;;;7.35;100.00;98723.58;103358;1259;96786;-76
2024/02/24 01:37:49;;;;;;;33.70;26.10;;;;;;;7.35;100.00;98715.45;103168;1257;138385;-76
2024/02/24 01:40:16;;;;;;;36.70;27.50;;;;;;;7.35;100.00;98719.77;102868;1264;107701;-76
2024/02/24 01:42:45;;;;;;;30.30;25.40;;;;;;;7.33;100.00;98720.38;103025;1257;97717;-76
2024/02/24 01:45:14;;;;;;;30.60;26.00;;;;;;;7.35;100.00;98719.59;102958;1259;107780;-76
2024/02/24 01:47:42;;;;;;;30.20;24.80;;;;;;;7.35;100.00;98720.98;103433;1259;97813;-76
2024/02/24 01:50:11;;;;;;;31.20;25.60;;;;;;;7.34;100.00;98711.86;103204;1262;139847;-76
2024/02/24 01:52:39;;;;;;;28.90;24.30;;;;;;;7.36;100.00;98704.89;103063;1259;109377;-75
2024/02/24 01:55:09;;;;;;;28.80;23.70;;;;;;;7.37;100.00;98706.56;102822;1259;138744;-75
2024/02/24 01:57:42;;;;;;;27.40;22.30;;;;;;;7.38;100.00;98697.03;103148;1259;107399;-75
2024/02/24 02:00:12;;;;;;;31.50;23.30;;;;;;;7.38;100.00;98699.60;102993;1259;97862;-76
2024/02/24 02:02:43;;;;;;;26.60;21.60;;;;;;;7.40;100.00;98692.29;102947;1259;138333;-75
2024/02/24 02:05:13;;;;;;;28.10;21.60;;;;;;;7.39;100.00;98686.08;103110;1259;107017;-76
2024/02/24 02:07:41;;;;;;;27.30;22.20;;;;;;;7.38;100.00;98693.92;102894;1259;140164;-75
2024/02/24 02:10:09;;;;;;;30.30;21.80;;;;;;;7.38;100.00;98693.22;102885;1259;108019;-75
2024/02/24 02:12:37;;;;;;;26.90;22.30;;;;;;;7.38;100.00;98685.80;103181;1258;97808;-75
2024/02/24 02:15:06;;;;;;;25.90;21.50;;;;;;;7.37;100.00;98685.31;103161;1262;138473;-76
2024/02/24 02:17:33;;;;;;;24.00;19.90;;;;;;;7.37;100.00;98681.70;103087;1263;108179;-77
2024/02/24 02:20:04;;;;;;;28.20;21.20;;;;;;;7.35;100.00;98669.30;102898;1259;139627;-77
2024/02/24 02:22:32;;;;;;;26.10;21.10;;;;;;;7.34;100.00;98665.72;103201;1263;107410;-76
2024/02/24 02:25:00;;;;;;;26.60;21.50;;;;;;;7.33;100.00;98670.59;102784;1259;138818;-76
2024/02/24 02:27:27;;;;;;;27.70;21.10;;;;;;;7.33;100.00;98664.22;102904;1259;110022;-78
2024/02/24 02:29:54;;;;;;;25.50;21.40;;;;;;;7.32;100.00;98662.85;102905;1259;107343;-75
2024/02/24 02:32:22;;;;;;;25.30;19.60;;;;;;;7.30;100.00;98657.73;102840;1259;140094;-76
2024/02/24 02:34:50;;;;;;;23.90;19.90;;;;;;;7.30;100.00;98668.29;102910;1262;108038;-76
2024/02/24 02:37:17;;;;;;;27.70;20.00;;;;;;;7.28;100.00;98664.58;102806;1257;138922;-76
2024/02/24 02:39:44;;;;;;;24.40;19.70;;;;;;;7.27;100.00;98669.78;102832;1259;111382;-77
2024/02/24 02:42:13;;;;;;;23.40;19.30;;;;;;;7.27;100.00;98664.80;102855;1263;107262;-77
2024/02/24 02:44:40;;;;;;;22.80;19.00;;;;;;;7.27;100.00;98662.90;102967;1259;138582;-76
2024/02/24 02:47:08;;;;;;;25.60;18.50;;;;;;;7.28;100.00;98657.00;102893;1259;108445;-77
2024/02/24 02:49:46;;;;;;;22.00;18.50;;;;;;;7.27;100.00;98654.58;102917;1259;142199;-77
2024/02/24 02:52:13;;;;;;;21.60;18.80;;;;;;;7.27;100.00;98652.52;102861;1262;111944;-76
2024/02/24 02:54:40;;;;;;;22.20;18.80;;;;;;;7.26;100.00;98648.91;102887;1259;108749;-77
2024/02/24 02:57:07;;;;;;;20.80;17.70;;;;;;;7.26;100.00;98651.01;102757;1259;139085;-77
2024/02/24 02:59:38;;;;;;;22.20;18.60;;;;;;;7.25;100.00;98644.14;102859;1259;107458;-79
2024/02/24 03:02:06;;;;;;;22.50;17.40;;;;;;;7.25;100.00;98633.75;102553;1263;1002589;-77
2024/02/24 03:04:33;;;;;;;22.20;18.50;;;;;;;7.25;100.00;98627.02;103138;1258;111261;-78
2024/02/24 03:07:00;;;;;;;22.30;17.80;;;;;;;7.25;100.00;98630.81;102732;1259;139159;-78
2024/02/24 03:09:27;;;;;;;23.60;19.10;;;;;;;7.25;100.00;98624.11;102846;1259;97691;-78
2024/02/24 03:11:55;;;;;;;22.90;18.40;;;;;;;7.24;100.00;98616.03;102815;1263;108240;-76
2024/02/24 03:14:23;;;;;;;26.40;20.60;;;;;;;7.21;100.00;98611.48;103051;1259;138601;-76
2024/02/24 03:16:53;;;;;;;22.70;18.80;;;;;;;7.19;100.00;98608.98;102852;1263;110884;-76
2024/02/24 03:19:20;;;;;;;24.40;19.10;;;;;;;7.17;100.00;98609.41;102739;1257;138906;-77
2024/02/24 03:21:48;;;;;;;22.70;18.80;;;;;;;7.14;100.00;98629.42;102900;1262;98339;-76
2024/02/24 03:24:16;;;;;;;24.80;19.30;;;;;;;7.13;100.00;98637.27;102885;1259;107252;-77
2024/02/24 03:26:43;;;;;;;24.00;19.40;;;;;;;7.11;100.00;98647.00;102887;1260;138619;-76
2024/02/24 03:29:10;;;;;;;22.10;19.40;;;;;;;7.09;100.00;98638.11;103008;1259;111385;-77
2024/02/24 03:31:38;;;;;;;24.50;20.00;;;;;;;7.06;100.00;98636.69;102840;1259;138821;-76
2024/02/24 03:34:07;;;;;;;24.30;19.60;;;;;;;7.05;100.00;98650.55;102882;1264;97701;-76
2024/02/24 03:36:34;;;;;;;26.20;19.00;;;;;;;7.05;100.00;98646.25;102916;1259;108829;-77
2024/02/24 03:39:02;;;;;;;26.10;20.00;;;;;;;7.04;100.00;98644.06;102864;1259;138760;-76
2024/02/24 03:41:32;;;;;;;24.70;19.30;;;;;;;7.04;100.00;98638.55;102895;1259;113700;-75
2024/02/24 03:44:00;;;;;;;22.80;19.40;;;;;;;7.03;100.00;98632.34;102806;1259;138537;-76
2024/02/24 03:46:28;;;;;;;24.20;19.40;;;;;;;7.03;100.00;98632.17;103295;1262;97682;-75
2024/02/24 03:48:55;;;;;;;24.40;19.60;;;;;;;7.03;100.00;98636.14;102924;1259;138914;-75
2024/02/24 03:51:22;;;;;;;23.90;19.30;;;;;;;7.04;100.00;98636.96;102967;1259;97802;-76
2024/02/24 03:53:50;;;;;;;24.10;19.70;;;;;;;7.05;100.00;98642.80;102893;1259;110845;-76
2024/02/24 03:56:17;;;;;;;22.30;19.60;;;;;;;7.05;100.00;98641.06;102824;1259;142065;-77
2024/02/24 03:58:45;;;;;;;23.30;19.30;;;;;;;7.05;100.00;98640.02;102809;1258;98484;-77
2024/02/24 04:01:12;;;;;;;22.00;19.60;;;;;;;7.04;100.00;98633.14;102966;1259;138611;-77
2024/02/24 04:03:40;;;;;;;25.40;18.60;;;;;;;7.07;100.00;98638.73;103062;1259;97700;-77
2024/02/24 04:06:08;;;;;;;24.80;19.50;;;;;;;7.07;100.00;98633.73;103058;1259;111522;-76
2024/02/24 04:08:36;;;;;;;24.80;19.50;;;;;;;7.07;100.00;98633.20;103717;1258;138671;-77
2024/02/24 04:11:04;;;;;;;25.20;19.30;;;;;;;7.07;100.00;98644.43;103000;1262;97904;-76
2024/02/24 04:13:31;;;;;;;21.70;18.40;;;;;;;7.06;100.00;98642.04;102998;1259;138810;-77
2024/02/24 04:15:59;;;;;;;21.70;18.90;;;;;;;7.07;100.00;98640.11;102975;1263;97702;-77
2024/02/24 04:18:26;;;;;;;25.00;18.20;;;;;;;7.05;100.00;98637.59;103811;1258;112493;-77
2024/02/24 04:20:54;;;;;;;22.60;19.10;;;;;;;7.05;100.00;98648.34;102878;1257;138762;-77
2024/02/24 04:23:22;;;;;;;24.10;18.80;;;;;;;7.04;100.00;98640.77;103189;1263;98341;-77
2024/02/24 04:25:49;;;;;;;23.70;19.10;;;;;;;7.02;100.00;98638.44;102777;1262;138489;-77
2024/02/24 04:28:16;;;;;;;22.20;18.20;;;;;;;7.02;100.00;98639.99;102918;1262;98468;-77
2024/02/24 04:30:47;;;;;;;24.70;19.30;;;;;;;7.01;100.00;98638.64;102920;1257;110766;-77
2024/02/24 04:33:15;;;;;;;21.50;18.60;;;;;;;7.00;100.00;98648.87;102827;1259;108328;-77
2024/02/24 04:35:42;;;;;;;22.60;18.80;;;;;;;6.99;100.00;98637.48;103174;1258;97808;-76
2024/02/24 04:38:10;;;;;;;21.60;18.00;;;;;;;6.96;100.00;98638.85;103318;1259;139224;-76
2024/02/24 04:40:37;;;;;;;25.30;19.00;;;;;;;6.96;100.00;98640.92;102941;1259;98552;-75
2024/02/24 04:43:05;;;;;;;24.80;19.70;;;;;;;6.94;100.00;98625.44;102742;1259;138727;-74
2024/02/24 04:45:32;;;;;;;23.10;18.90;;;;;;;6.93;100.00;98630.17;102840;1261;108392;-75
2024/02/24 04:48:00;;;;;;;21.90;18.70;;;;;;;6.91;100.00;98631.97;102937;1259;97833;-75
2024/02/24 04:50:28;;;;;;;23.70;19.20;;;;;;;6.90;100.00;98630.83;102871;1259;140332;-75
2024/02/24 04:52:55;;;;;;;21.70;18.20;;;;;;;6.88;100.00;98635.93;104224;1258;96099;-76
2024/02/24 04:55:22;;;;;;;21.50;18.90;;;;;;;6.87;100.00;98635.98;102784;1259;139261;-75
2024/02/24 04:57:50;;;;;;;22.40;18.20;;;;;;;6.84;100.00;98627.44;102884;1259;109540;-75
2024/02/24 05:00:18;;;;;;;24.30;19.80;;;;;;;6.82;100.00;98624.95;102862;1259;97828;-74
2024/02/24 05:02:46;;;;;;;22.80;19.70;;;;;;;6.78;100.00;98624.73;102890;1263;138371;-75
2024/02/24 05:05:13;;;;;;;22.50;19.30;;;;;;;6.76;100.00;98614.32;102919;1259;97690;-77
2024/02/24 05:07:41;;;;;;;21.70;19.40;;;;;;;6.74;100.00;98621.48;102729;1259;138397;-77
2024/02/24 05:10:10;;;;;;;22.10;18.20;;;;;;;6.72;100.00;98616.05;102194;1259;1002925;-76
2024/02/24 05:12:37;;;;;;;25.10;18.70;;;;;;;6.71;100.00;98595.23;103409;1259;97806;-76
2024/02/24 05:15:05;;;;;;;21.40;18.70;;;;;;;6.69;100.00;98595.79;102701;1263;138558;-75
2024/02/24 05:17:33;;;;;;;23.30;18.10;;;;;;;6.69;100.00;98597.34;103081;1259;97792;-76
2024/02/24 05:20:00;;;;;;;22.70;19.00;;;;;;;6.70;100.00;98588.16;102784;1259;138534;-75
2024/02/24 05:22:28;;;;;;;21.40;17.90;;;;;;;6.70;100.00;98592.64;103142;1262;107552;-76
2024/02/24 05:24:55;;;;;;;23.30;18.20;;;;;;;6.70;100.00;98587.80;102827;1258;138924;-76
2024/02/24 05:27:22;;;;;;;21.40;18.00;;;;;;;6.71;100.00;98583.96;102898;1259;108048;-77
2024/02/24 05:29:49;;;;;;;22.20;17.50;;;;;;;6.72;100.00;98584.61;102901;1259;98504;-77
2024/02/24 05:32:17;;;;;;;22.10;17.40;;;;;;;6.73;100.00;98579.58;103184;1258;138771;-77
2024/02/24 05:34:45;;;;;;;21.60;17.40;;;;;;;6.74;100.00;98574.70;102858;1259;107776;-78
2024/02/24 05:37:12;;;;;;;18.90;16.90;;;;;;;6.76;100.00;98579.62;102755;1259;138695;-77
2024/02/24 05:39:39;;;;;;;22.20;17.40;;;;;;;6.77;100.00;98593.05;102838;1262;108736;-75
2024/02/24 05:42:08;;;;;;;23.80;17.90;;;;;;;6.78;100.00;98591.23;102880;1259;97783;-76
2024/02/24 05:44:35;;;;;;;20.80;17.20;;;;;;;6.79;100.00;98594.84;103021;1260;138726;-77
2024/02/24 05:47:03;;;;;;;21.00;17.00;;;;;;;6.81;100.00;98599.40;102897;1259;107612;-77
2024/02/24 05:49:31;;;;;;;23.20;16.70;;;;;;;6.83;100.00;98594.52;103095;1264;139872;-77
2024/02/24 05:51:58;;;;;;;18.50;16.20;;;;;;;6.84;100.00;98589.13;102866;1259;110355;-78
2024/02/24 05:54:25;;;;;;;22.00;16.80;;;;;;;6.86;100.00;98589.04;102892;1263;99494;-78
2024/02/24 05:56:53;;;;;;;17.60;15.30;;;;;;;6.86;100.00;98594.01;102825;1259;138596;-78
2024/02/24 05:59:20;;;;;;;20.50;15.40;;;;;;;6.89;100.00;98598.23;102899;1259;107259;-77
2024/02/24 06:01:47;;;;;;;20.00;15.60;;;;;;;6.89;100.00;98593.54;102715;1263;139745;-77
2024/02/24 06:04:16;;;;;;;18.40;15.80;;;;;;;6.91;100.00;98598.45;102931;1259;108147;-76
2024/02/24 06:06:46;;;;;;;20.60;15.70;;;;;;;6.93;100.00;98596.80;102844;1260;97960;-76
2024/02/24 06:09:13;;;;;;;19.80;15.30;;;;;;;6.95;100.00;98604.16;102999;1260;111174;-75
2024/02/24 06:11:41;;;;;;;17.00;14.30;;;;;;;6.95;100.00;98606.02;102761;1262;108182;-83
2024/02/24 06:14:08;;;;;;;16.80;14.10;;;;;;;6.97;100.00;98602.66;102830;1259;139653;-73
2024/02/24 06:16:35;;;;;;;18.30;14.30;;;;;;;6.99;100.00;98595.67;102948;1259;108271;-76
2024/02/24 06:19:03;;;;;;;15.60;13.80;;;;;;;7.00;100.00;98598.59;102692;1259;139257;-76
2024/02/24 06:21:32;;;;;;;18.00;13.90;;;;;;;7.05;100.00;98599.95;102907;1259;111700;-76
2024/02/24 06:24:00;;;;;;;16.30;12.70;;;;;;;7.06;100.00;98597.96;102945;1259;107727;-75
2024/02/24 06:26:27;;;;;;;16.20;13.40;;;;;;;7.09;100.00;98605.48;102833;1260;138861;-75
2024/02/24 06:28:56;;;;;;;16.80;13.00;;;;;;;7.11;100.00;98607.61;102858;1259;108469;-74
2024/02/24 06:31:23;;;;;;;16.10;13.50;;;;;;;7.13;100.00;98605.95;102670;1259;138857;-75
2024/02/24 06:33:50;;;;;;;15.20;12.90;;;;;;;7.16;100.00;98597.02;102941;1259;110453;-75
2024/02/24 06:36:18;;;;;;;16.50;13.20;;;;;;;7.18;100.00;98601.95;102906;1259;108149;-75
2024/02/24 06:38:45;;;;;;;16.40;12.90;;;;;;;7.17;100.00;98598.00;102750;1259;139590;-75
2024/02/24 06:41:12;;;;;;;16.50;12.60;;;;;;;7.21;100.00;98613.55;102780;1263;107738;-76
2024/02/24 06:43:40;;;;;;;16.60;12.60;;;;;;;7.23;100.00;98611.58;102851;1263;139291;-77
2024/02/24 06:46:07;;;;;;;17.20;12.30;;;;;;;7.27;100.00;98612.76;102889;1259;111402;-76
2024/02/24 06:48:34;;;;;;;16.60;12.50;;;;;;;7.31;100.00;98613.11;102806;1259;107839;-74
2024/02/24 06:51:02;;;;;;;15.70;12.50;;;;;;;7.33;100.00;98628.42;102798;1259;138535;-75
2024/02/24 06:53:29;;;;;;;16.50;12.70;;;;;;;7.34;100.00;98617.46;102798;1263;108264;-75
2024/02/24 06:55:56;;;;;;;16.70;11.80;;;;;;;7.36;100.00;98621.54;102713;1265;138575;-75
2024/02/24 06:58:24;;;;;;;15.90;12.40;;;;;;;7.37;100.00;98622.00;102842;1259;111091;-76
2024/02/24 07:00:51;;;;;;;14.70;12.10;;;;;;;7.38;100.00;98623.20;102777;1259;108519;-75
2024/02/24 07:03:19;;;;;;;16.10;12.10;;;;;;;7.38;100.00;98623.68;102854;1263;97837;-75
2024/02/24 07:05:47;;;;;;;14.50;12.30;;;;;;;7.40;100.00;98628.65;104246;1259;107554;-76
2024/02/24 07:08:15;;;;;;;19.00;12.80;;;;;;;7.40;100.00;98618.25;104216;1259;139428;-75
2024/02/24 07:10:42;;;;;;;14.10;12.70;;;;;;;7.42;100.00;98623.02;104291;1259;111559;-74
2024/02/24 07:13:10;;;;;;;15.10;11.80;;;;;;;7.43;100.00;98632.30;104163;1259;139197;-75
2024/02/24 07:15:38;;;;;;;15.10;12.30;;;;;;;7.43;100.00;98638.18;104259;1259;95711;-76
2024/02/24 07:18:06;;;;;;;15.70;12.10;;;;;;;7.44;100.00;98631.00;104210;1259;107068;-74
2024/02/24 07:20:34;;;;;;;18.80;13.00;;;;;;;7.48;100.00;98602.48;104189;1258;139158;-75
2024/02/24 07:23:01;;;;;;;18.30;12.50;;;;;;;7.50;100.00;98609.46;104294;1259;111022;-74
2024/02/24 07:25:28;;;;;;;12.80;11.40;;;;;;;7.52;100.00;98612.32;103218;1263;138902;-76
2024/02/24 07:27:56;;;;;;;15.60;11.80;;;;;;;7.54;100.00;98612.59;102862;1259;97777;-75
2024/02/24 07:30:24;;;;;;;16.70;12.60;;;;;;;7.56;100.00;98625.44;102989;1264;108534;-75
2024/02/24 07:32:51;;;;;;;13.80;11.20;;;;;;;7.58;100.00;98627.81;102768;1258;138589;-75
2024/02/24 07:35:19;;;;;;;17.40;12.70;;;;;;;7.59;100.00;98642.11;103016;1258;110766;-75
2024/02/24 07:37:46;;;;;;;15.50;12.10;;;;;;;7.62;100.00;98632.99;102771;1259;138781;-75
2024/02/24 07:40:15;;;;;;;15.40;11.90;;;;;;;7.63;100.00;98632.91;102919;1260;98444;-76
2024/02/24 07:42:42;;;;;;;17.00;11.70;;;;;;;7.65;100.00;98640.63;103926;1263;106615;-75
2024/02/24 07:45:11;;;;;;;13.80;11.40;;;;;;;7.66;100.00;98645.92;102909;1259;138480;-75
2024/02/24 07:47:38;;;;;;;17.20;11.90;;;;;;;7.68;100.00;98650.33;103065;1259;110804;-75
2024/02/24 07:50:07;;;;;;;14.00;11.00;;;;;;;7.69;100.00;98655.97;102997;1259;138577;-75
2024/02/24 07:52:34;;;;;;;16.90;12.30;;;;;;;7.71;100.00;98653.29;103161;1262;97803;-75
2024/02/24 07:55:03;;;;;;;19.60;12.90;;;;;;;7.74;100.00;98654.59;102772;1259;138806;-75
2024/02/24 07:57:30;;;;;;;15.20;11.10;;;;;;;7.76;100.00;98656.02;104245;1260;95731;-75
2024/02/24 07:59:57;;;;;;;15.20;11.60;;;;;;;7.78;100.00;98662.85;103042;1259;111101;-74
2024/02/24 08:02:25;;;;;;;14.20;10.90;;;;;;;7.80;99.95;98662.20;102758;1259;138710;-74
2024/02/24 08:04:52;;;;;;;13.20;11.10;;;;;;;7.83;100.00;98660.17;102990;1259;98427;-73
2024/02/24 08:07:20;;;;;;;13.30;11.30;;;;;;;7.85;99.95;98666.83;102697;1262;138758;-71
2024/02/24 08:09:47;;;;;;;13.30;10.70;;;;;;;7.87;99.83;98667.93;102907;1259;97731;-74
2024/02/24 08:12:15;;;;;;;12.40;10.30;;;;;;;7.92;99.32;98665.66;102876;1259;111708;-76
2024/02/24 08:14:42;;;;;;;16.80;10.70;;;;;;;7.97;98.68;98668.41;103000;1259;138418;-76
2024/02/24 08:17:11;;;;;;;13.50;11.00;;;;;;;8.02;98.69;98655.52;102852;1259;98477;-76
2024/02/24 08:19:39;;;;;;;17.50;11.50;;;;;;;8.05;98.05;98665.90;103008;1259;138596;-75
2024/02/24 08:22:06;;;;;;;12.50;10.50;;;;;;;8.09;98.22;98667.67;102949;1259;99506;-75
2024/02/24 08:24:34;;;;;;;14.10;11.50;;;;;;;8.10;98.44;98671.05;102958;1260;111848;-76
2024/02/24 08:27:01;;;;;;;15.00;11.10;;;;;;;8.11;98.19;98677.58;102812;1259;139500;-74
2024/02/24 08:29:31;;;;;;;15.80;11.20;;;;;;;8.12;98.21;98668.34;103350;1259;97908;-77
2024/02/24 08:31:59;;;;;;;15.40;11.70;;;;;;;8.16;98.16;98671.63;103151;1262;138693;-77
2024/02/24 08:34:26;;;;;;;13.80;11.30;;;;;;;8.18;98.05;98671.87;103023;1261;98425;-75
2024/02/24 08:36:54;;;;;;;14.30;10.80;;;;;;;8.21;97.55;98685.08;102830;1259;112450;-78
2024/02/24 08:39:21;;;;;;;12.30;10.30;;;;;;;8.23;97.23;98690.01;102855;1261;108561;-71
2024/02/24 08:41:48;;;;;;;14.50;11.30;;;;;;;8.24;97.40;98683.02;103242;1259;97816;-73
2024/02/24 08:44:17;;;;;;;15.60;11.10;;;;;;;8.27;97.54;98686.71;103636;1261;138402;-74
2024/02/24 08:46:44;;;;;;;14.60;11.40;;;;;;;8.29;97.39;98687.29;103698;1262;98113;-74
2024/02/24 08:49:12;;;;;;;16.80;10.70;;;;;;;8.33;97.27;98696.82;102781;1259;138528;-73
2024/02/24 08:51:40;;;;;;;14.80;11.10;;;;;;;8.35;96.77;98705.18;103250;1260;106606;-73
2024/02/24 08:54:07;;;;;;;14.50;10.40;;;;;;;8.39;96.89;98708.16;103540;1259;96319;-73
2024/02/24 08:56:34;;;;;;;13.30;10.40;;;;;;;8.41;96.64;98717.91;103351;1258;140764;-74
2024/02/24 08:59:02;;;;;;;15.00;11.00;;;;;;;8.43;96.76;98729.59;103181;1259;97869;-74
2024/02/24 09:01:29;;;;;;;14.70;11.50;;;;;;;8.46;96.44;98733.26;103806;1259;139179;-75
2024/02/24 09:03:59;;;;;;;14.70;11.20;;;;;;;8.50;95.78;98740.89;103653;1263;107157;-74
2024/02/24 09:06:26;;;;;;;15.20;10.60;;;;;;;8.53;95.85;98748.17;103251;1259;97808;-74
2024/02/24 09:08:54;;;;;;;14.00;10.00;;;;;;;8.58;96.06;98749.31;102792;1264;138310;-75
2024/02/24 09:11:21;;;;;;;14.60;10.70;;;;;;;8.63;94.81;98754.64;103469;1263;95997;-74
2024/02/24 09:13:49;;;;;;;15.30;10.60;;;;;;;8.70;95.35;98753.95;103267;1262;138380;-73
2024/02/24 09:16:18;;;;;;;15.50;10.50;;;;;;;8.74;94.83;98756.31;102856;1259;107625;-73
2024/02/24 09:18:46;;;;;;;13.00;10.20;;;;;;;8.81;94.68;98769.90;102945;1259;97855;-74
2024/02/24 09:21:13;;;;;;;13.20;10.40;;;;;;;8.86;94.42;98782.83;102913;1259;138159;-73
2024/02/24 09:23:41;;;;;;;13.00;10.00;;;;;;;8.91;94.06;98783.92;102863;1264;97817;-74
2024/02/24 09:26:08;;;;;;;12.60;10.20;;;;;;;8.97;94.05;98788.30;102838;1259;138420;-72
2024/02/24 09:28:36;;;;;;;12.30;10.50;;;;;;;9.04;94.02;98796.12;103043;1259;108062;-72
2024/02/24 09:31:03;;;;;;;17.10;10.60;;;;;;;9.12;93.23;98802.86;102796;1259;138884;-72
2024/02/24 09:33:30;;;;;;;12.20;9.70;;;;;;;9.18;93.76;98799.81;103103;1259;107397;-76
2024/02/24 09:35:58;;;;;;;14.90;10.00;;;;;;;9.23;92.77;98802.15;103220;1259;97898;-76
2024/02/24 09:38:26;;;;;;;15.60;10.20;;;;;;;9.28;93.30;98802.42;102793;1259;138561;-76
2024/02/24 09:40:53;;;;;;;14.60;10.80;;;;;;;9.33;93.02;98804.59;102910;1259;106878;-76
2024/02/24 09:43:21;;;;;;;12.60;10.20;;;;;;;9.37;92.32;98809.23;102819;1259;139790;-75
2024/02/24 09:45:49;;;;;;;12.50;10.40;;;;;;;9.40;92.31;98809.61;102920;1259;106944;-75
2024/02/24 09:48:17;;;;;;;13.40;10.50;;;;;;;9.41;91.93;98810.79;102950;1259;97942;-74
2024/02/24 09:50:45;;;;;;;13.20;10.10;;;;;;;9.44;91.71;98822.77;102706;1264;138572;-75
2024/02/24 09:53:12;;;;;;;15.90;9.80;;;;;;;9.45;91.83;98811.29;102869;1259;107411;-76
2024/02/24 09:55:40;;;;;;;14.40;10.00;;;;;;;9.47;91.73;98810.65;103288;1259;139167;-75
2024/02/24 09:58:13;;;;;;;12.80;9.60;;;;;;;9.50;92.03;98815.54;102909;1259;106819;-75
2024/02/24 10:00:43;;;;;;;12.30;9.30;;;;;;;9.57;92.00;98822.94;102996;1263;97805;-74
2024/02/24 10:03:11;;;;;;;13.00;10.10;;;;;;;9.65;92.13;98828.60;102733;1259;138246;-75
2024/02/24 10:05:39;;;;;;;10.50;8.80;;;;;;;9.80;91.29;98829.25;102993;1263;106849;-76
2024/02/24 10:08:10;;;;;;;11.20;8.80;;;;;;;10.07;91.96;98830.27;102912;1264;138637;-76
2024/02/24 10:10:39;;;;;;;10.50;8.10;;;;;;;10.64;90.25;98833.66;103083;1263;107198;-75
2024/02/24 10:13:06;;;;;;;9.80;8.00;;;;;;;11.23;88.86;98828.43;102842;1259;143481;-76
2024/02/24 10:15:35;;;;;;;8.90;7.80;;;;;;;11.66;87.53;98825.56;102948;1259;111966;-74
2024/02/24 10:18:03;;;;;;;7.80;6.90;;;;;;;11.92;87.00;98833.63;103093;1259;107063;-74
2024/02/24 10:20:31;;;;;;;10.50;7.10;;;;;;;12.15;84.23;98830.83;103014;1259;139097;-74
2024/02/24 10:22:59;;;;;;;7.00;6.20;;;;;;;12.30;82.15;98830.23;103494;1259;107020;-75
2024/02/24 10:25:26;;;;;;;8.70;6.50;;;;;;;12.30;81.33;98836.34;103065;1260;139114;-77
2024/02/24 10:27:55;;;;;;;7.40;5.50;;;;;;;12.31;81.99;98846.02;102989;1263;110922;-77
2024/02/24 10:30:22;;;;;;;7.60;5.70;;;;;;;12.25;81.10;98845.19;103200;1264;108655;-73
2024/02/24 10:32:56;;;;;;;6.10;5.30;;;;;;;12.10;80.60;98856.76;102817;1263;138689;-74
2024/02/24 10:35:23;;;;;;;6.80;5.50;;;;;;;11.96;80.59;98856.55;103197;1259;106803;-70
2024/02/24 10:37:55;;;;;;;5.90;5.10;;;;;;;11.94;81.95;98856.33;102704;1259;138558;-81
2024/02/24 10:40:43;;;;;;;5.20;4.30;;;;;;;12.05;81.64;98867.14;103163;1259;111416;-72
2024/02/24 10:43:12;;;;;;;7.70;4.50;;;;;;;12.20;81.77;98876.23;102649;1263;139306;-71
2024/02/24 10:45:39;;;;;;;4.00;3.00;;;;;;;12.30;81.86;98882.89;102957;1263;97809;-71
2024/02/24 10:48:08;;;;;;;4.80;2.90;;;;;;;12.28;78.92;98888.63;103109;1263;107058;-71
2024/02/24 10:50:36;;;;;;;4.70;2.50;;;;;;;12.13;77.65;98890.20;102952;1262;139557;-71
2024/02/24 10:53:05;;;;;;;3.60;2.80;;;;;;;11.97;77.56;98899.32;102971;1259;111645;-70
2024/02/24 10:55:36;;;;;;;3.10;2.30;;;;;;;11.87;77.42;98906.59;102946;1262;138625;-71
2024/02/24 10:58:03;;;;;;;1.90;1.50;;;;;;;11.76;76.97;98911.50;103120;1263;97865;-70
2024/02/24 11:00:35;;;;;;;2.30;1.60;;;;;;;11.68;76.87;98921.76;102853;1259;107106;-71
2024/02/24 11:03:04;;;;;;;2.00;1.60;;;;;;;11.74;76.29;98929.40;103024;1259;139147;-71
2024/02/24 11:05:34;;;;;;;3.40;1.70;;;;;;;11.77;74.88;98934.26;103159;1262;110707;-71
2024/02/24 11:08:03;;;;;;;1.90;1.70;;;;;;;11.65;73.03;98929.59;102865;1265;137912;-71
2024/02/24 11:10:35;;;;;;;2.00;1.70;;;;;;;11.55;73.64;98944.45;102902;1263;97702;-71